Oreana, Nevada
Current Conditions -  °F | °C
As of 10:53 AM on Saturday 20 Dec 2014 (Local Time) from KLOL Reporting Station
Overcast Overcast  
Wind Chill: 41°   Ceiling: 7000
Heat Index: 41°   Visibility: 10mi
Dew Point: 38°   Wind: 3mph
Humidity: 89%   Direction: 110°ESE
Pressure: 30.12"   Gusts: NA
Location:  40.3545°N, 118.628°W
Report Text: KLOL 201853Z AUTO 11003KT 10SM FEW055 BKN070 OVC080 05/03 A3012 RMK AO2 RAE07 SLP211 P0000 T00500033
Loading
Personal Weather Stations






























Interactive Weather Map New forecast layout! Learn more

10-Day Weather Forecast

Advertisements
Track Severe Weather on mobile